sensor_id;sensor_type;location;lat;lon;timestamp;P1;durP1;ratioP1;P2;durP2;ratioP2
1877;SDS011;939;51.426;6.972;2023-04-15T00:01:18;2.65;;;2.22;;
1877;SDS011;939;51.426;6.972;2023-04-15T00:03:45;2.60;;;2.40;;
1877;SDS011;939;51.426;6.972;2023-04-15T00:06:12;2.85;;;2.20;;
1877;SDS011;939;51.426;6.972;2023-04-15T00:08:39;7.57;;;2.47;;
1877;SDS011;939;51.426;6.972;2023-04-15T00:11:06;8.80;;;3.90;;
1877;SDS011;939;51.426;6.972;2023-04-15T00:13:33;2.95;;;2.35;;
1877;SDS011;939;51.426;6.972;2023-04-15T00:16:01;2.60;;;1.90;;
1877;SDS011;939;51.426;6.972;2023-04-15T00:18:28;3.53;;;2.05;;
1877;SDS011;939;51.426;6.972;2023-04-15T00:20:55;4.75;;;2.97;;
1877;SDS011;939;51.426;6.972;2023-04-15T00:23:22;2.55;;;2.05;;
1877;SDS011;939;51.426;6.972;2023-04-15T00:25:50;6.75;;;2.88;;
1877;SDS011;939;51.426;6.972;2023-04-15T00:28:17;5.47;;;3.45;;
1877;SDS011;939;51.426;6.972;2023-04-15T00:30:44;9.13;;;2.55;;
1877;SDS011;939;51.426;6.972;2023-04-15T00:33:13;3.53;;;2.60;;
1877;SDS011;939;51.426;6.972;2023-04-15T00:35:40;3.78;;;2.95;;
1877;SDS011;939;51.426;6.972;2023-04-15T00:38:07;3.70;;;2.45;;
1877;SDS011;939;51.426;6.972;2023-04-15T00:40:34;3.22;;;2.65;;
1877;SDS011;939;51.426;6.972;2023-04-15T00:43:01;3.33;;;2.65;;
1877;SDS011;939;51.426;6.972;2023-04-15T00:45:29;2.72;;;2.40;;
1877;SDS011;939;51.426;6.972;2023-04-15T00:47:57;2.35;;;1.95;;
1877;SDS011;939;51.426;6.972;2023-04-15T00:50:26;7.25;;;2.83;;
1877;SDS011;939;51.426;6.972;2023-04-15T00:52:52;5.95;;;4.65;;
1877;SDS011;939;51.426;6.972;2023-04-15T00:55:20;7.32;;;3.38;;
1877;SDS011;939;51.426;6.972;2023-04-15T00:57:47;4.93;;;2.80;;
1877;SDS011;939;51.426;6.972;2023-04-15T01:00:15;3.20;;;2.13;;
1877;SDS011;939;51.426;6.972;2023-04-15T01:02:42;5.53;;;3.45;;
1877;SDS011;939;51.426;6.972;2023-04-15T01:05:09;5.07;;;3.53;;
1877;SDS011;939;51.426;6.972;2023-04-15T01:07:37;5.20;;;3.22;;
1877;SDS011;939;51.426;6.972;2023-04-15T01:10:04;3.35;;;2.10;;
1877;SDS011;939;51.426;6.972;2023-04-15T01:12:32;4.38;;;2.75;;
1877;SDS011;939;51.426;6.972;2023-04-15T01:14:59;5.43;;;3.05;;
1877;SDS011;939;51.426;6.972;2023-04-15T01:17:27;3.65;;;3.08;;
1877;SDS011;939;51.426;6.972;2023-04-15T01:19:54;14.32;;;2.95;;
1877;SDS011;939;51.426;6.972;2023-04-15T01:22:22;3.53;;;2.58;;
1877;SDS011;939;51.426;6.972;2023-04-15T01:24:53;3.15;;;2.85;;
1877;SDS011;939;51.426;6.972;2023-04-15T01:27:27;6.40;;;4.25;;
1877;SDS011;939;51.426;6.972;2023-04-15T01:29:55;6.97;;;2.65;;
1877;SDS011;939;51.426;6.972;2023-04-15T01:32:22;2.30;;;2.10;;
1877;SDS011;939;51.426;6.972;2023-04-15T01:34:49;7.63;;;3.42;;
1877;SDS011;939;51.426;6.972;2023-04-15T01:37:16;4.07;;;3.53;;
1877;SDS011;939;51.426;6.972;2023-04-15T01:39:43;10.50;;;3.40;;
1877;SDS011;939;51.426;6.972;2023-04-15T01:42:10;5.95;;;3.35;;
1877;SDS011;939;51.426;6.972;2023-04-15T01:44:38;3.08;;;2.78;;
1877;SDS011;939;51.426;6.972;2023-04-15T01:47:05;6.45;;;3.67;;
1877;SDS011;939;51.426;6.972;2023-04-15T01:49:32;5.53;;;4.28;;
1877;SDS011;939;51.426;6.972;2023-04-15T01:52:00;5.50;;;3.35;;
1877;SDS011;939;51.426;6.972;2023-04-15T01:54:27;11.85;;;3.60;;
1877;SDS011;939;51.426;6.972;2023-04-15T01:56:53;7.72;;;3.30;;
1877;SDS011;939;51.426;6.972;2023-04-15T01:59:20;4.47;;;4.05;;
1877;SDS011;939;51.426;6.972;2023-04-15T02:01:49;12.38;;;4.88;;
1877;SDS011;939;51.426;6.972;2023-04-15T02:04:16;5.15;;;3.40;;
1877;SDS011;939;51.426;6.972;2023-04-15T02:06:43;7.30;;;2.88;;
1877;SDS011;939;51.426;6.972;2023-04-15T02:09:10;4.15;;;3.28;;
1877;SDS011;939;51.426;6.972;2023-04-15T02:11:37;3.30;;;3.00;;
1877;SDS011;939;51.426;6.972;2023-04-15T02:14:04;4.53;;;3.10;;
1877;SDS011;939;51.426;6.972;2023-04-15T02:16:31;4.90;;;3.40;;
1877;SDS011;939;51.426;6.972;2023-04-15T02:18:59;9.27;;;4.07;;
1877;SDS011;939;51.426;6.972;2023-04-15T02:21:27;7.18;;;4.45;;
1877;SDS011;939;51.426;6.972;2023-04-15T02:23:56;5.63;;;3.10;;
1877;SDS011;939;51.426;6.972;2023-04-15T02:26:23;8.50;;;4.75;;
1877;SDS011;939;51.426;6.972;2023-04-15T02:28:50;7.82;;;5.63;;
1877;SDS011;939;51.426;6.972;2023-04-15T02:31:17;5.60;;;2.78;;
1877;SDS011;939;51.426;6.972;2023-04-15T02:33:45;6.88;;;3.10;;
1877;SDS011;939;51.426;6.972;2023-04-15T02:36:14;6.85;;;3.78;;
1877;SDS011;939;51.426;6.972;2023-04-15T02:38:41;4.57;;;3.10;;
1877;SDS011;939;51.426;6.972;2023-04-15T02:41:08;5.53;;;3.58;;
1877;SDS011;939;51.426;6.972;2023-04-15T02:43:35;4.72;;;4.07;;
1877;SDS011;939;51.426;6.972;2023-04-15T02:46:03;5.68;;;4.40;;
1877;SDS011;939;51.426;6.972;2023-04-15T02:48:31;8.48;;;3.50;;
1877;SDS011;939;51.426;6.972;2023-04-15T02:51:11;6.30;;;3.53;;
1877;SDS011;939;51.426;6.972;2023-04-15T02:53:43;6.00;;;4.53;;
1877;SDS011;939;51.426;6.972;2023-04-15T02:56:11;10.35;;;4.75;;
1877;SDS011;939;51.426;6.972;2023-04-15T02:58:42;6.88;;;4.22;;
1877;SDS011;939;51.426;6.972;2023-04-15T03:01:11;4.15;;;3.55;;
1877;SDS011;939;51.426;6.972;2023-04-15T03:03:38;10.70;;;4.72;;
1877;SDS011;939;51.426;6.972;2023-04-15T03:06:05;5.53;;;4.15;;
1877;SDS011;939;51.426;6.972;2023-04-15T03:08:34;5.32;;;3.55;;
1877;SDS011;939;51.426;6.972;2023-04-15T03:11:01;9.32;;;5.13;;
1877;SDS011;939;51.426;6.972;2023-04-15T03:13:28;9.70;;;4.22;;
1877;SDS011;939;51.426;6.972;2023-04-15T03:15:55;7.38;;;5.55;;
1877;SDS011;939;51.426;6.972;2023-04-15T03:18:21;7.47;;;4.90;;
1877;SDS011;939;51.426;6.972;2023-04-15T03:20:48;5.85;;;4.40;;
1877;SDS011;939;51.426;6.972;2023-04-15T03:23:15;7.93;;;4.80;;
1877;SDS011;939;51.426;6.972;2023-04-15T03:25:44;6.47;;;4.97;;
1877;SDS011;939;51.426;6.972;2023-04-15T03:28:11;4.03;;;3.60;;
1877;SDS011;939;51.426;6.972;2023-04-15T03:30:38;7.53;;;4.38;;
1877;SDS011;939;51.426;6.972;2023-04-15T03:33:05;9.45;;;4.63;;
1877;SDS011;939;51.426;6.972;2023-04-15T03:35:32;8.50;;;5.68;;
1877;SDS011;939;51.426;6.972;2023-04-15T03:37:59;4.88;;;3.58;;
1877;SDS011;939;51.426;6.972;2023-04-15T03:40:26;7.47;;;5.28;;
1877;SDS011;939;51.426;6.972;2023-04-15T03:42:54;4.18;;;2.90;;
1877;SDS011;939;51.426;6.972;2023-04-15T03:45:21;13.63;;;4.28;;
1877;SDS011;939;51.426;6.972;2023-04-15T03:47:48;5.50;;;4.85;;
1877;SDS011;939;51.426;6.972;2023-04-15T03:50:15;5.07;;;4.10;;
1877;SDS011;939;51.426;6.972;2023-04-15T03:52:42;9.15;;;5.15;;
1877;SDS011;939;51.426;6.972;2023-04-15T03:55:09;6.32;;;3.60;;
1877;SDS011;939;51.426;6.972;2023-04-15T03:57:36;6.63;;;4.75;;
1877;SDS011;939;51.426;6.972;2023-04-15T04:00:05;5.20;;;4.68;;
1877;SDS011;939;51.426;6.972;2023-04-15T04:02:34;6.90;;;5.18;;
1877;SDS011;939;51.426;6.972;2023-04-15T04:05:01;7.57;;;5.20;;
1877;SDS011;939;51.426;6.972;2023-04-15T04:07:29;6.40;;;5.22;;
1877;SDS011;939;51.426;6.972;2023-04-15T04:09:56;7.65;;;4.35;;
1877;SDS011;939;51.426;6.972;2023-04-15T04:12:23;9.00;;;4.72;;
1877;SDS011;939;51.426;6.972;2023-04-15T04:14:50;13.18;;;5.22;;
1877;SDS011;939;51.426;6.972;2023-04-15T04:17:18;9.20;;;4.60;;
1877;SDS011;939;51.426;6.972;2023-04-15T04:19:45;6.90;;;4.07;;
1877;SDS011;939;51.426;6.972;2023-04-15T04:22:11;6.43;;;3.78;;
1877;SDS011;939;51.426;6.972;2023-04-15T04:24:38;13.98;;;6.22;;
1877;SDS011;939;51.426;6.972;2023-04-15T04:27:05;7.85;;;4.20;;
1877;SDS011;939;51.426;6.972;2023-04-15T04:29:35;10.07;;;5.57;;
1877;SDS011;939;51.426;6.972;2023-04-15T04:32:02;16.52;;;3.90;;
1877;SDS011;939;51.426;6.972;2023-04-15T04:34:30;6.40;;;4.07;;
1877;SDS011;939;51.426;6.972;2023-04-15T04:36:57;7.43;;;3.42;;
1877;SDS011;939;51.426;6.972;2023-04-15T04:39:24;4.82;;;4.15;;
1877;SDS011;939;51.426;6.972;2023-04-15T04:41:51;5.35;;;4.22;;
1877;SDS011;939;51.426;6.972;2023-04-15T04:44:18;6.22;;;4.22;;
1877;SDS011;939;51.426;6.972;2023-04-15T04:46:44;18.05;;;4.90;;
1877;SDS011;939;51.426;6.972;2023-04-15T04:49:11;5.43;;;3.92;;
1877;SDS011;939;51.426;6.972;2023-04-15T04:51:39;8.55;;;5.22;;
1877;SDS011;939;51.426;6.972;2023-04-15T04:54:06;6.00;;;3.88;;
1877;SDS011;939;51.426;6.972;2023-04-15T04:56:33;6.15;;;5.57;;
1877;SDS011;939;51.426;6.972;2023-04-15T04:59:02;5.20;;;3.70;;
1877;SDS011;939;51.426;6.972;2023-04-15T05:01:29;8.80;;;4.35;;
1877;SDS011;939;51.426;6.972;2023-04-15T05:03:56;4.63;;;3.95;;
1877;SDS011;939;51.426;6.972;2023-04-15T05:06:23;5.90;;;4.18;;
1877;SDS011;939;51.426;6.972;2023-04-15T05:08:51;7.60;;;5.28;;
1877;SDS011;939;51.426;6.972;2023-04-15T05:11:19;6.93;;;4.68;;
1877;SDS011;939;51.426;6.972;2023-04-15T05:13:46;4.95;;;3.38;;
1877;SDS011;939;51.426;6.972;2023-04-15T05:16:12;7.13;;;4.93;;
1877;SDS011;939;51.426;6.972;2023-04-15T05:18:39;11.32;;;4.82;;
1877;SDS011;939;51.426;6.972;2023-04-15T05:21:06;3.50;;;3.08;;
1877;SDS011;939;51.426;6.972;2023-04-15T05:23:33;5.55;;;5.00;;
1877;SDS011;939;51.426;6.972;2023-04-15T05:26:01;7.28;;;3.70;;
1877;SDS011;939;51.426;6.972;2023-04-15T05:28:28;11.13;;;4.50;;
1877;SDS011;939;51.426;6.972;2023-04-15T05:30:55;6.20;;;3.83;;
1877;SDS011;939;51.426;6.972;2023-04-15T05:33:22;7.32;;;3.90;;
1877;SDS011;939;51.426;6.972;2023-04-15T05:35:50;5.57;;;4.40;;
1877;SDS011;939;51.426;6.972;2023-04-15T05:38:16;7.15;;;3.70;;
1877;SDS011;939;51.426;6.972;2023-04-15T05:40:43;5.72;;;3.75;;
1877;SDS011;939;51.426;6.972;2023-04-15T05:43:11;5.13;;;4.63;;
1877;SDS011;939;51.426;6.972;2023-04-15T05:45:38;6.75;;;5.00;;
1877;SDS011;939;51.426;6.972;2023-04-15T05:48:05;4.05;;;3.60;;
1877;SDS011;939;51.426;6.972;2023-04-15T05:50:32;5.68;;;3.85;;
1877;SDS011;939;51.426;6.972;2023-04-15T05:52:59;8.88;;;4.80;;
1877;SDS011;939;51.426;6.972;2023-04-15T05:55:29;6.53;;;3.70;;
1877;SDS011;939;51.426;6.972;2023-04-15T05:57:56;5.05;;;4.28;;
1877;SDS011;939;51.426;6.972;2023-04-15T06:00:25;6.95;;;4.95;;
1877;SDS011;939;51.426;6.972;2023-04-15T06:02:52;5.13;;;3.20;;
1877;SDS011;939;51.426;6.972;2023-04-15T06:05:18;9.65;;;5.22;;
1877;SDS011;939;51.426;6.972;2023-04-15T06:07:45;9.95;;;4.47;;
1877;SDS011;939;51.426;6.972;2023-04-15T06:10:12;7.32;;;4.30;;
1877;SDS011;939;51.426;6.972;2023-04-15T06:12:39;6.90;;;4.78;;
1877;SDS011;939;51.426;6.972;2023-04-15T06:15:06;16.67;;;5.15;;
1877;SDS011;939;51.426;6.972;2023-04-15T06:17:36;6.32;;;4.05;;
1877;SDS011;939;51.426;6.972;2023-04-15T06:20:06;9.77;;;6.32;;
1877;SDS011;939;51.426;6.972;2023-04-15T06:22:33;5.75;;;5.15;;
1877;SDS011;939;51.426;6.972;2023-04-15T06:25:02;4.47;;;3.90;;
1877;SDS011;939;51.426;6.972;2023-04-15T06:27:29;8.43;;;4.65;;
1877;SDS011;939;51.426;6.972;2023-04-15T06:29:56;10.95;;;4.22;;
1877;SDS011;939;51.426;6.972;2023-04-15T06:32:23;9.68;;;6.15;;
1877;SDS011;939;51.426;6.972;2023-04-15T06:34:51;9.52;;;5.43;;
1877;SDS011;939;51.426;6.972;2023-04-15T06:37:18;8.88;;;6.32;;
1877;SDS011;939;51.426;6.972;2023-04-15T06:39:44;7.93;;;6.28;;
1877;SDS011;939;51.426;6.972;2023-04-15T06:42:11;12.43;;;4.85;;
1877;SDS011;939;51.426;6.972;2023-04-15T06:44:39;6.57;;;5.20;;
1877;SDS011;939;51.426;6.972;2023-04-15T06:47:07;9.40;;;6.00;;
1877;SDS011;939;51.426;6.972;2023-04-15T06:49:34;10.25;;;5.25;;
1877;SDS011;939;51.426;6.972;2023-04-15T06:52:02;7.03;;;5.82;;
1877;SDS011;939;51.426;6.972;2023-04-15T06:54:29;11.70;;;6.35;;
1877;SDS011;939;51.426;6.972;2023-04-15T06:56:56;12.13;;;6.65;;
1877;SDS011;939;51.426;6.972;2023-04-15T06:59:23;9.32;;;4.60;;
1877;SDS011;939;51.426;6.972;2023-04-15T07:01:51;4.72;;;4.32;;
1877;SDS011;939;51.426;6.972;2023-04-15T07:04:18;7.40;;;4.50;;
1877;SDS011;939;51.426;6.972;2023-04-15T07:06:45;13.65;;;4.43;;
1877;SDS011;939;51.426;6.972;2023-04-15T07:09:13;11.25;;;5.30;;
1877;SDS011;939;51.426;6.972;2023-04-15T07:11:41;11.07;;;5.55;;
1877;SDS011;939;51.426;6.972;2023-04-15T07:14:08;5.50;;;4.15;;
1877;SDS011;939;51.426;6.972;2023-04-15T07:16:35;7.85;;;4.55;;
1877;SDS011;939;51.426;6.972;2023-04-15T07:19:02;6.75;;;4.82;;
1877;SDS011;939;51.426;6.972;2023-04-15T07:21:29;5.90;;;4.05;;
1877;SDS011;939;51.426;6.972;2023-04-15T07:23:56;6.15;;;5.32;;
1877;SDS011;939;51.426;6.972;2023-04-15T07:26:26;8.27;;;4.65;;
1877;SDS011;939;51.426;6.972;2023-04-15T07:28:52;4.78;;;4.03;;
1877;SDS011;939;51.426;6.972;2023-04-15T07:31:19;12.50;;;4.80;;
1877;SDS011;939;51.426;6.972;2023-04-15T07:33:46;8.93;;;3.25;;
1877;SDS011;939;51.426;6.972;2023-04-15T07:36:19;10.18;;;4.78;;
1877;SDS011;939;51.426;6.972;2023-04-15T07:38:47;11.00;;;5.50;;
1877;SDS011;939;51.426;6.972;2023-04-15T07:41:14;7.70;;;4.50;;
1877;SDS011;939;51.426;6.972;2023-04-15T07:43:42;8.05;;;6.40;;
1877;SDS011;939;51.426;6.972;2023-04-15T07:46:09;12.10;;;5.85;;
1877;SDS011;939;51.426;6.972;2023-04-15T07:48:36;9.40;;;5.30;;
1877;SDS011;939;51.426;6.972;2023-04-15T07:51:03;19.23;;;5.50;;
1877;SDS011;939;51.426;6.972;2023-04-15T07:53:30;10.40;;;6.22;;
1877;SDS011;939;51.426;6.972;2023-04-15T07:55:58;5.38;;;4.32;;
1877;SDS011;939;51.426;6.972;2023-04-15T07:58:24;7.22;;;5.45;;
1877;SDS011;939;51.426;6.972;2023-04-15T08:00:53;7.60;;;4.93;;
1877;SDS011;939;51.426;6.972;2023-04-15T08:03:20;7.30;;;5.72;;
1877;SDS011;939;51.426;6.972;2023-04-15T08:05:47;5.32;;;3.88;;
1877;SDS011;939;51.426;6.972;2023-04-15T08:08:14;4.75;;;3.45;;
1877;SDS011;939;51.426;6.972;2023-04-15T08:10:42;5.53;;;3.75;;
1877;SDS011;939;51.426;6.972;2023-04-15T08:13:09;8.23;;;4.50;;
1877;SDS011;939;51.426;6.972;2023-04-15T08:15:37;6.07;;;3.95;;
1877;SDS011;939;51.426;6.972;2023-04-15T08:18:09;7.82;;;3.90;;
1877;SDS011;939;51.426;6.972;2023-04-15T08:20:37;4.43;;;3.22;;
1877;SDS011;939;51.426;6.972;2023-04-15T08:23:05;5.07;;;4.40;;
1877;SDS011;939;51.426;6.972;2023-04-15T08:25:34;5.80;;;3.83;;
1877;SDS011;939;51.426;6.972;2023-04-15T08:28:02;4.90;;;2.90;;
1877;SDS011;939;51.426;6.972;2023-04-15T08:30:31;6.00;;;3.37;;
1877;SDS011;939;51.426;6.972;2023-04-15T08:32:58;5.70;;;3.40;;
1877;SDS011;939;51.426;6.972;2023-04-15T08:35:32;6.90;;;3.80;;
1877;SDS011;939;51.426;6.972;2023-04-15T08:37:58;4.10;;;2.75;;
1877;SDS011;939;51.426;6.972;2023-04-15T08:40:25;5.83;;;3.57;;
1877;SDS011;939;51.426;6.972;2023-04-15T08:43:01;3.20;;;2.90;;
1877;SDS011;939;51.426;6.972;2023-04-15T08:45:30;3.53;;;2.33;;
1877;SDS011;939;51.426;6.972;2023-04-15T08:47:58;1.27;;;1.13;;
1877;SDS011;939;51.426;6.972;2023-04-15T08:50:27;2.70;;;2.30;;
1877;SDS011;939;51.426;6.972;2023-04-15T08:52:57;4.37;;;2.67;;
1877;SDS011;939;51.426;6.972;2023-04-15T08:55:25;2.17;;;1.80;;
1877;SDS011;939;51.426;6.972;2023-04-15T08:57:58;4.50;;;2.13;;
1877;SDS011;939;51.426;6.972;2023-04-15T09:00:27;3.97;;;3.57;;
1877;SDS011;939;51.426;6.972;2023-04-15T09:03:01;2.87;;;1.50;;
1877;SDS011;939;51.426;6.972;2023-04-15T09:05:30;4.70;;;2.67;;
1877;SDS011;939;51.426;6.972;2023-04-15T09:07:59;4.73;;;3.00;;
1877;SDS011;939;51.426;6.972;2023-04-15T09:10:26;3.57;;;2.13;;
1877;SDS011;939;51.426;6.972;2023-04-15T09:12:53;3.20;;;2.90;;
1877;SDS011;939;51.426;6.972;2023-04-15T09:15:24;3.17;;;2.10;;
1877;SDS011;939;51.426;6.972;2023-04-15T09:17:53;2.77;;;1.70;;
1877;SDS011;939;51.426;6.972;2023-04-15T09:20:21;4.30;;;1.80;;
1877;SDS011;939;51.426;6.972;2023-04-15T09:22:48;3.10;;;2.73;;
1877;SDS011;939;51.426;6.972;2023-04-15T09:25:27;2.20;;;1.57;;
1877;SDS011;939;51.426;6.972;2023-04-15T09:27:55;2.70;;;2.17;;
1877;SDS011;939;51.426;6.972;2023-04-15T09:30:23;2.90;;;2.30;;
1877;SDS011;939;51.426;6.972;2023-04-15T09:32:51;2.83;;;2.30;;
1877;SDS011;939;51.426;6.972;2023-04-15T09:35:21;2.57;;;2.07;;
1877;SDS011;939;51.426;6.972;2023-04-15T09:37:49;1.97;;;1.63;;
1877;SDS011;939;51.426;6.972;2023-04-15T09:40:31;2.53;;;1.87;;
1877;SDS011;939;51.426;6.972;2023-04-15T09:43:00;4.10;;;3.27;;
1877;SDS011;939;51.426;6.972;2023-04-15T09:45:29;4.20;;;2.97;;
1877;SDS011;939;51.426;6.972;2023-04-15T09:47:58;1.97;;;1.77;;
1877;SDS011;939;51.426;6.972;2023-04-15T09:50:26;3.63;;;2.33;;
1877;SDS011;939;51.426;6.972;2023-04-15T09:52:54;4.33;;;2.47;;
1877;SDS011;939;51.426;6.972;2023-04-15T09:55:21;3.00;;;1.97;;
1877;SDS011;939;51.426;6.972;2023-04-15T09:57:50;4.00;;;3.07;;
1877;SDS011;939;51.426;6.972;2023-04-15T10:00:17;2.40;;;2.20;;
1877;SDS011;939;51.426;6.972;2023-04-15T10:02:44;3.80;;;2.13;;
1877;SDS011;939;51.426;6.972;2023-04-15T10:05:14;2.50;;;2.20;;
1877;SDS011;939;51.426;6.972;2023-04-15T10:07:41;3.03;;;2.13;;
1877;SDS011;939;51.426;6.972;2023-04-15T10:10:10;3.40;;;2.30;;
1877;SDS011;939;51.426;6.972;2023-04-15T10:12:38;3.40;;;3.10;;
1877;SDS011;939;51.426;6.972;2023-04-15T10:15:10;4.43;;;2.67;;
1877;SDS011;939;51.426;6.972;2023-04-15T10:17:42;2.80;;;1.87;;
1877;SDS011;939;51.426;6.972;2023-04-15T10:20:10;4.60;;;2.80;;
1877;SDS011;939;51.426;6.972;2023-04-15T10:22:39;3.73;;;2.90;;
1877;SDS011;939;51.426;6.972;2023-04-15T10:25:07;1.83;;;1.20;;
1877;SDS011;939;51.426;6.972;2023-04-15T10:27:35;2.60;;;2.00;;
1877;SDS011;939;51.426;6.972;2023-04-15T10:30:05;1.37;;;1.17;;
1877;SDS011;939;51.426;6.972;2023-04-15T10:32:34;3.90;;;2.60;;
1877;SDS011;939;51.426;6.972;2023-04-15T10:35:01;1.67;;;1.50;;
1877;SDS011;939;51.426;6.972;2023-04-15T10:37:33;3.40;;;3.10;;
1877;SDS011;939;51.426;6.972;2023-04-15T10:42:51;2.07;;;1.77;;
1877;SDS011;939;51.426;6.972;2023-04-15T10:45:19;6.00;;;3.70;;
1877;SDS011;939;51.426;6.972;2023-04-15T10:47:47;3.37;;;3.07;;
1877;SDS011;939;51.426;6.972;2023-04-15T10:50:18;5.00;;;3.73;;
1877;SDS011;939;51.426;6.972;2023-04-15T10:52:49;2.87;;;2.67;;
1877;SDS011;939;51.426;6.972;2023-04-15T10:55:20;3.53;;;2.40;;
1877;SDS011;939;51.426;6.972;2023-04-15T10:57:50;6.00;;;3.93;;
1877;SDS011;939;51.426;6.972;2023-04-15T11:00:19;2.77;;;1.60;;
1877;SDS011;939;51.426;6.972;2023-04-15T11:02:53;6.40;;;3.87;;
1877;SDS011;939;51.426;6.972;2023-04-15T11:05:21;2.13;;;1.40;;
1877;SDS011;939;51.426;6.972;2023-04-15T11:08:09;4.87;;;3.77;;
1877;SDS011;939;51.426;6.972;2023-04-15T11:13:25;2.70;;;2.20;;
1877;SDS011;939;51.426;6.972;2023-04-15T11:15:56;6.03;;;3.60;;
1877;SDS011;939;51.426;6.972;2023-04-15T11:18:27;2.60;;;1.87;;
1877;SDS011;939;51.426;6.972;2023-04-15T11:21:00;5.40;;;3.00;;
1877;SDS011;939;51.426;6.972;2023-04-15T11:23:29;4.10;;;2.90;;
1877;SDS011;939;51.426;6.972;2023-04-15T11:25:58;4.50;;;2.67;;
1877;SDS011;939;51.426;6.972;2023-04-15T11:28:27;4.90;;;3.50;;
1877;SDS011;939;51.426;6.972;2023-04-15T11:30:55;4.23;;;2.87;;
1877;SDS011;939;51.426;6.972;2023-04-15T11:33:23;1.50;;;1.23;;
1877;SDS011;939;51.426;6.972;2023-04-15T11:35:52;6.73;;;2.90;;
1877;SDS011;939;51.426;6.972;2023-04-15T11:38:20;2.37;;;1.80;;
1877;SDS011;939;51.426;6.972;2023-04-15T11:40:49;3.97;;;2.03;;
1877;SDS011;939;51.426;6.972;2023-04-15T11:43:23;1.93;;;1.70;;
1877;SDS011;939;51.426;6.972;2023-04-15T11:45:51;1.77;;;1.60;;
1877;SDS011;939;51.426;6.972;2023-04-15T11:48:21;1.63;;;1.27;;
1877;SDS011;939;51.426;6.972;2023-04-15T11:50:54;1.70;;;1.30;;
1877;SDS011;939;51.426;6.972;2023-04-15T11:53:22;2.07;;;1.57;;
1877;SDS011;939;51.426;6.972;2023-04-15T11:55:51;3.50;;;2.50;;
1877;SDS011;939;51.426;6.972;2023-04-15T11:58:19;3.13;;;2.35;;
1877;SDS011;939;51.426;6.972;2023-04-15T12:00:49;3.00;;;2.40;;
1877;SDS011;939;51.426;6.972;2023-04-15T12:03:22;3.58;;;1.50;;
1877;SDS011;939;51.426;6.972;2023-04-15T12:06:07;2.53;;;2.30;;
1877;SDS011;939;51.426;6.972;2023-04-15T12:11:26;3.30;;;2.40;;
1877;SDS011;939;51.426;6.972;2023-04-15T12:13:56;2.47;;;2.08;;
1877;SDS011;939;51.426;6.972;2023-04-15T12:16:26;2.45;;;1.45;;
1877;SDS011;939;51.426;6.972;2023-04-15T12:18:54;4.82;;;2.60;;
1877;SDS011;939;51.426;6.972;2023-04-15T12:21:25;3.22;;;2.15;;
1877;SDS011;939;51.426;6.972;2023-04-15T12:23:55;2.45;;;1.95;;
1877;SDS011;939;51.426;6.972;2023-04-15T12:26:28;3.67;;;2.07;;
1877;SDS011;939;51.426;6.972;2023-04-15T12:28:59;3.78;;;2.50;;
1877;SDS011;939;51.426;6.972;2023-04-15T12:31:28;4.55;;;1.98;;
1877;SDS011;939;51.426;6.972;2023-04-15T12:33:57;3.78;;;2.42;;
1877;SDS011;939;51.426;6.972;2023-04-15T12:36:27;2.95;;;1.92;;
1877;SDS011;939;51.426;6.972;2023-04-15T12:38:57;2.20;;;1.50;;
1877;SDS011;939;51.426;6.972;2023-04-15T12:41:24;3.08;;;2.13;;
1877;SDS011;939;51.426;6.972;2023-04-15T12:43:51;2.25;;;2.05;;
1877;SDS011;939;51.426;6.972;2023-04-15T12:46:18;3.38;;;2.15;;
1877;SDS011;939;51.426;6.972;2023-04-15T12:48:44;1.55;;;1.30;;
1877;SDS011;939;51.426;6.972;2023-04-15T12:51:12;2.78;;;2.25;;
1877;SDS011;939;51.426;6.972;2023-04-15T12:53:41;1.65;;;1.33;;
1877;SDS011;939;51.426;6.972;2023-04-15T12:56:08;2.30;;;1.70;;
1877;SDS011;939;51.426;6.972;2023-04-15T12:58:35;4.50;;;2.13;;
1877;SDS011;939;51.426;6.972;2023-04-15T13:01:02;2.63;;;1.55;;
1877;SDS011;939;51.426;6.972;2023-04-15T13:03:30;2.25;;;1.90;;
1877;SDS011;939;51.426;6.972;2023-04-15T13:07:39;1.95;;;1.50;;
1877;SDS011;939;51.426;6.972;2023-04-15T13:10:06;1.87;;;1.30;;
1877;SDS011;939;51.426;6.972;2023-04-15T13:12:34;3.45;;;2.72;;
1877;SDS011;939;51.426;6.972;2023-04-15T13:15:01;4.38;;;2.63;;
1877;SDS011;939;51.426;6.972;2023-04-15T13:17:28;4.43;;;3.08;;
1877;SDS011;939;51.426;6.972;2023-04-15T13:19:55;2.73;;;2.10;;
1877;SDS011;939;51.426;6.972;2023-04-15T13:22:22;2.17;;;1.70;;
1877;SDS011;939;51.426;6.972;2023-04-15T13:24:52;2.63;;;1.90;;
1877;SDS011;939;51.426;6.972;2023-04-15T13:27:19;3.93;;;2.20;;
1877;SDS011;939;51.426;6.972;2023-04-15T13:29:46;2.90;;;1.47;;
1877;SDS011;939;51.426;6.972;2023-04-15T13:32:13;2.88;;;1.50;;
1877;SDS011;939;51.426;6.972;2023-04-15T13:34:43;1.73;;;1.20;;
1877;SDS011;939;51.426;6.972;2023-04-15T13:37:09;1.70;;;1.50;;
1877;SDS011;939;51.426;6.972;2023-04-15T13:39:36;2.83;;;2.37;;
1877;SDS011;939;51.426;6.972;2023-04-15T13:42:05;2.15;;;1.80;;
1877;SDS011;939;51.426;6.972;2023-04-15T13:44:32;1.60;;;1.50;;
1877;SDS011;939;51.426;6.972;2023-04-15T13:47:00;3.47;;;2.77;;
1877;SDS011;939;51.426;6.972;2023-04-15T13:49:27;2.30;;;2.10;;
1877;SDS011;939;51.426;6.972;2023-04-15T13:51:54;2.57;;;1.30;;
1877;SDS011;939;51.426;6.972;2023-04-15T13:54:21;3.95;;;2.20;;
1877;SDS011;939;51.426;6.972;2023-04-15T13:56:53;1.80;;;1.40;;
1877;SDS011;939;51.426;6.972;2023-04-15T13:59:25;3.30;;;1.90;;
1877;SDS011;939;51.426;6.972;2023-04-15T14:01:52;2.70;;;2.00;;
1877;SDS011;939;51.426;6.972;2023-04-15T14:04:19;2.38;;;2.03;;
1877;SDS011;939;51.426;6.972;2023-04-15T14:06:45;1.65;;;1.52;;
1877;SDS011;939;51.426;6.972;2023-04-15T14:09:13;6.38;;;2.03;;
1877;SDS011;939;51.426;6.972;2023-04-15T14:11:41;3.00;;;1.60;;
1877;SDS011;939;51.426;6.972;2023-04-15T14:14:07;4.72;;;2.85;;
1877;SDS011;939;51.426;6.972;2023-04-15T14:16:36;2.30;;;1.77;;
1877;SDS011;939;51.426;6.972;2023-04-15T14:19:02;2.78;;;1.83;;
1877;SDS011;939;51.426;6.972;2023-04-15T14:21:29;2.53;;;1.80;;
1877;SDS011;939;51.426;6.972;2023-04-15T14:23:57;3.75;;;2.15;;
1877;SDS011;939;51.426;6.972;2023-04-15T14:26:24;5.53;;;3.17;;
1877;SDS011;939;51.426;6.972;2023-04-15T14:28:51;4.65;;;1.90;;
1877;SDS011;939;51.426;6.972;2023-04-15T14:31:18;3.97;;;2.55;;
1877;SDS011;939;51.426;6.972;2023-04-15T14:33:46;3.90;;;1.30;;
1877;SDS011;939;51.426;6.972;2023-04-15T14:36:14;2.38;;;1.73;;
1877;SDS011;939;51.426;6.972;2023-04-15T14:38:40;1.60;;;1.43;;
1877;SDS011;939;51.426;6.972;2023-04-15T14:41:07;1.92;;;1.20;;
1877;SDS011;939;51.426;6.972;2023-04-15T14:43:34;4.22;;;2.38;;
1877;SDS011;939;51.426;6.972;2023-04-15T14:46:02;1.50;;;1.30;;
1877;SDS011;939;51.426;6.972;2023-04-15T14:48:29;6.55;;;3.58;;
1877;SDS011;939;51.426;6.972;2023-04-15T14:50:58;2.03;;;1.52;;
1877;SDS011;939;51.426;6.972;2023-04-15T14:53:25;8.75;;;2.42;;
1877;SDS011;939;51.426;6.972;2023-04-15T14:55:52;2.13;;;1.93;;
1877;SDS011;939;51.426;6.972;2023-04-15T14:58:19;2.33;;;2.03;;
1877;SDS011;939;51.426;6.972;2023-04-15T15:00:48;2.13;;;1.88;;
1877;SDS011;939;51.426;6.972;2023-04-15T15:03:28;4.65;;;3.00;;
